Time;durP1;ratioP1;P1;durP2;ratioP2;P2;SDS_P1;SDS_P2;PMS_P1;PMS_P2;Temp;Humidity;BMP_temperature;BMP_pressure;BME280_temperature;BME280_humidity;BME280_pressure;Samples;Min_cycle;Max_cycle;Signal;HPM_P1;HPM_P2
2020/12/20 00:02:02;;;;;;;9.80;7.07;;;0.30;99.90;;;;;;4749883;30;20058;-77
2020/12/20 00:04:34;;;;;;;9.80;7.18;;;0.40;99.90;;;;;;4749793;30;20048;-78
2020/12/20 00:07:07;;;;;;;11.43;7.60;;;0.30;99.90;;;;;;4749958;30;20058;-77
2020/12/20 00:09:34;;;;;;;8.50;7.18;;;0.30;99.90;;;;;;4749522;30;20058;-78
2020/12/20 00:12:00;;;;;;;9.90;6.68;;;0.30;99.90;;;;;;4749843;30;20044;-77
2020/12/20 00:14:26;;;;;;;11.40;8.35;;;0.30;99.90;;;;;;4750015;30;20535;-77
2020/12/20 00:17:04;;;;;;;11.15;7.18;;;0.30;99.90;;;;;;4735029;30;20424;-77
2020/12/20 00:19:31;;;;;;;10.32;7.88;;;0.30;99.90;;;;;;4755784;30;20047;-78
2020/12/20 00:22:09;;;;;;;10.68;7.07;;;0.30;99.90;;;;;;4764245;30;20055;-77
2020/12/20 00:24:43;;;;;;;8.70;7.00;;;0.30;99.90;;;;;;4737438;30;20056;-78
2020/12/20 00:27:14;;;;;;;11.27;7.55;;;0.30;99.90;;;;;;4752303;30;20043;-78
2020/12/20 00:29:46;;;;;;;13.85;7.63;;;0.30;99.90;;;;;;4733411;30;20051;-78
2020/12/20 00:32:17;;;;;;;10.85;7.30;;;0.30;99.90;;;;;;4755048;30;20047;-78
2020/12/20 00:34:49;;;;;;;12.35;8.18;;;0.20;99.90;;;;;;4756686;30;20058;-78
2020/12/20 00:37:20;;;;;;;11.50;7.45;;;0.20;99.90;;;;;;4767340;30;20051;-78
2020/12/20 00:39:47;;;;;;;10.85;7.30;;;0.30;99.90;;;;;;4767646;30;20059;-78
2020/12/20 00:42:13;;;;;;;10.82;7.85;;;0.20;99.90;;;;;;4768259;30;20055;-78
2020/12/20 00:44:40;;;;;;;10.57;7.03;;;0.30;99.90;;;;;;4753262;30;20432;-78
2020/12/20 00:47:06;;;;;;;11.68;8.38;;;0.20;99.90;;;;;;4768358;30;20079;-78
2020/12/20 00:49:33;;;;;;;10.35;7.93;;;0.20;99.90;;;;;;4767968;30;20071;-78
2020/12/20 00:52:09;;;;;;;10.65;7.18;;;0.20;99.90;;;;;;4768350;30;20134;-78
2020/12/20 00:54:37;;;;;;;11.75;7.75;;;0.20;99.90;;;;;;4753668;30;20340;-77
2020/12/20 00:57:06;;;;;;;11.35;8.00;;;0.20;99.90;;;;;;4754105;30;20052;-78
2020/12/20 00:59:37;;;;;;;10.98;8.35;;;0.20;99.90;;;;;;4769261;30;20051;-77
2020/12/20 01:02:03;;;;;;;11.70;8.07;;;0.30;99.90;;;;;;4768719;30;20054;-78
2020/12/20 01:04:35;;;;;;;10.52;7.70;;;0.30;99.90;;;;;;4754254;30;20043;-78
2020/12/20 01:07:02;;;;;;;9.15;7.18;;;0.30;99.90;;;;;;4768596;30;20142;-78
2020/12/20 01:09:32;;;;;;;10.60;8.50;;;0.30;99.90;;;;;;4753712;30;20439;-78
2020/12/20 01:12:01;;;;;;;10.90;7.57;;;0.30;99.90;;;;;;4753964;30;20048;-78
2020/12/20 01:15:02;;;;;;;10.90;7.60;;;0.30;99.90;;;;;;4773106;30;20066;-78
2020/12/20 01:17:29;;;;;;;10.18;7.30;;;0.30;99.90;;;;;;4753318;30;20408;-78
2020/12/20 01:20:04;;;;;;;10.57;7.10;;;0.30;99.90;;;;;;4768383;30;20055;-78
2020/12/20 01:22:36;;;;;;;10.63;8.38;;;0.30;99.90;;;;;;4754193;30;20075;-78
2020/12/20 01:25:11;;;;;;;10.43;7.03;;;0.30;99.90;;;;;;4768300;30;20047;-78
2020/12/20 01:27:38;;;;;;;9.52;7.85;;;0.30;99.90;;;;;;4753277;30;20462;-78
2020/12/20 01:30:10;;;;;;;11.45;7.63;;;0.30;99.90;;;;;;4756017;30;20047;-78
2020/12/20 01:32:37;;;;;;;10.88;8.30;;;0.30;99.90;;;;;;4771428;30;20469;-78
2020/12/20 01:35:10;;;;;;;11.32;8.23;;;0.30;99.90;;;;;;4757468;30;20059;-77
2020/12/20 01:37:37;;;;;;;11.00;8.10;;;0.30;99.90;;;;;;4757066;30;20051;-78
2020/12/20 01:40:12;;;;;;;9.25;7.50;;;0.30;99.90;;;;;;4757129;30;20142;-78
2020/12/20 01:42:52;;;;;;;10.75;8.02;;;0.40;99.90;;;;;;4757688;30;20058;-78
2020/12/20 01:45:23;;;;;;;10.65;7.43;;;0.40;99.90;;;;;;4771272;30;20043;-77
2020/12/20 01:47:50;;;;;;;10.43;7.10;;;0.40;99.90;;;;;;4756247;30;20108;-78
2020/12/20 01:50:17;;;;;;;11.90;8.45;;;0.40;99.90;;;;;;4771327;30;20052;-78
2020/12/20 01:52:46;;;;;;;10.93;6.97;;;0.40;99.90;;;;;;4756828;30;20526;-78
2020/12/20 01:55:24;;;;;;;10.45;7.13;;;0.40;99.90;;;;;;4770984;30;20051;-78
2020/12/20 01:58:03;;;;;;;11.32;7.40;;;0.40;99.90;;;;;;4757376;30;20066;-78
2020/12/20 02:00:37;;;;;;;11.77;8.68;;;0.40;99.90;;;;;;4770305;30;20055;-78
2020/12/20 02:03:23;;;;;;;11.93;8.07;;;0.50;99.90;;;;;;4773166;30;20581;-78
2020/12/20 02:05:51;;;;;;;11.60;7.32;;;0.40;99.90;;;;;;4755864;30;20051;-78
2020/12/20 02:08:19;;;;;;;11.27;8.30;;;0.40;99.90;;;;;;4755271;30;20047;-78
2020/12/20 02:11:27;;;;;;;12.80;8.23;;;0.40;99.90;;;;;;4770492;30;20281;-78
2020/12/20 02:13:56;;;;;;;11.30;8.18;;;0.40;99.90;;;;;;4698927;30;20599;-78
2020/12/20 02:16:38;;;;;;;10.70;7.13;;;0.30;99.90;;;;;;4709527;30;20526;-77
2020/12/20 02:19:04;;;;;;;12.20;7.88;;;0.30;99.90;;;;;;4746588;30;20048;-78
2020/12/20 02:21:31;;;;;;;11.75;8.20;;;0.30;99.90;;;;;;4770164;30;20055;-77
2020/12/20 02:24:09;;;;;;;11.48;8.07;;;0.40;99.90;;;;;;4756825;30;20487;-78
2020/12/20 02:26:47;;;;;;;11.93;7.65;;;0.40;99.90;;;;;;4770148;30;20051;-77
2020/12/20 02:29:13;;;;;;;12.50;7.93;;;0.40;99.90;;;;;;4754987;30;20150;-78
2020/12/20 02:31:40;;;;;;;13.38;8.13;;;0.40;99.90;;;;;;4755721;30;20083;-78
2020/12/20 02:34:13;;;;;;;12.13;8.00;;;0.40;99.90;;;;;;4770661;30;20066;-78
2020/12/20 02:36:48;;;;;;;11.35;7.63;;;0.40;99.90;;;;;;4756780;30;20348;-78
2020/12/20 02:39:23;;;;;;;11.43;8.27;;;0.40;99.90;;;;;;4769480;30;20074;-78
2020/12/20 02:41:59;;;;;;;10.80;7.45;;;0.40;99.90;;;;;;4755701;30;20062;-77
2020/12/20 02:44:31;;;;;;;13.57;8.48;;;0.40;99.90;;;;;;4769679;30;20428;-78
2020/12/20 02:47:05;;;;;;;13.90;9.25;;;0.40;99.90;;;;;;4769755;30;20382;-78
2020/12/20 02:49:32;;;;;;;12.00;8.75;;;0.40;99.90;;;;;;4753815;30;20101;-78
2020/12/20 02:52:12;;;;;;;13.27;8.95;;;0.40;99.90;;;;;;4757068;30;20051;-78
2020/12/20 02:54:44;;;;;;;13.77;9.05;;;0.40;99.90;;;;;;4756167;30;20534;-78
2020/12/20 02:57:25;;;;;;;13.75;8.55;;;0.40;99.90;;;;;;4769712;30;20051;-78
2020/12/20 03:00:05;;;;;;;13.32;9.13;;;0.30;99.90;;;;;;4756690;30;20279;-78
2020/12/20 03:02:36;;;;;;;12.18;8.27;;;0.40;99.90;;;;;;4769780;30;20551;-77
2020/12/20 03:05:07;;;;;;;11.15;8.07;;;0.30;99.90;;;;;;4769705;30;20063;-78
2020/12/20 03:07:39;;;;;;;13.60;8.77;;;0.30;99.90;;;;;;4755347;30;20419;-78
2020/12/20 03:10:07;;;;;;;12.55;8.93;;;0.40;99.90;;;;;;4769659;30;20062;-78
2020/12/20 03:12:33;;;;;;;12.63;8.48;;;0.40;99.90;;;;;;4769566;30;20070;-77
2020/12/20 03:15:05;;;;;;;12.32;7.18;;;0.40;99.90;;;;;;4769562;30;20493;-78
2020/12/20 03:17:36;;;;;;;12.13;9.13;;;0.40;99.90;;;;;;4755824;30;20526;-78
2020/12/20 03:20:05;;;;;;;10.70;7.55;;;0.40;99.90;;;;;;4754940;30;20142;-77
2020/12/20 03:22:37;;;;;;;13.00;8.23;;;0.40;99.90;;;;;;4769627;30;20202;-78
2020/12/20 03:25:36;;;;;;;12.43;9.20;;;0.40;99.90;;;;;;4774002;30;20047;-77
2020/12/20 03:28:23;;;;;;;13.50;8.20;;;0.30;99.90;;;;;;4756504;30;20534;-78
2020/12/20 03:31:33;;;;;;;12.77;8.23;;;0.30;99.90;;;;;;4720731;30;20052;-78
2020/12/20 03:34:06;;;;;;;12.38;8.27;;;0.30;99.90;;;;;;4716264;30;20648;-78
2020/12/20 03:36:56;;;;;;;11.55;7.82;;;0.30;99.90;;;;;;4745620;30;20059;-77
2020/12/20 03:39:30;;;;;;;12.43;8.32;;;0.30;99.90;;;;;;4768754;30;20055;-78
2020/12/20 03:42:02;;;;;;;13.45;8.35;;;0.30;99.90;;;;;;4755332;30;20051;-77
2020/12/20 03:44:34;;;;;;;11.43;8.30;;;0.30;99.90;;;;;;4754861;30;20420;-78
2020/12/20 03:47:00;;;;;;;12.60;9.10;;;0.30;99.90;;;;;;4769422;30;20451;-78
2020/12/20 03:49:27;;;;;;;11.05;8.13;;;0.30;99.90;;;;;;4768453;30;20450;-78
2020/12/20 03:51:58;;;;;;;10.90;7.90;;;0.30;99.90;;;;;;4755018;29;20057;-77
2020/12/20 03:54:32;;;;;;;13.82;9.43;;;0.20;99.90;;;;;;4755335;30;20059;-78
2020/12/20 03:56:59;;;;;;;13.73;8.50;;;0.30;99.90;;;;;;4754484;30;20055;-78
2020/12/20 03:59:30;;;;;;;12.00;8.02;;;0.30;99.90;;;;;;4768443;30;20490;-77
2020/12/20 04:02:03;;;;;;;13.45;8.35;;;0.30;99.90;;;;;;4754744;30;20078;-78
2020/12/20 04:04:34;;;;;;;12.18;7.88;;;0.30;99.90;;;;;;4754641;30;20063;-78
2020/12/20 04:07:01;;;;;;;12.55;8.27;;;0.30;99.90;;;;;;4754511;30;20470;-77
2020/12/20 04:09:31;;;;;;;12.40;8.73;;;0.30;99.90;;;;;;4768229;30;20100;-77
2020/12/20 04:12:05;;;;;;;12.00;8.25;;;0.30;99.90;;;;;;4756099;30;20146;-81
2020/12/20 04:14:37;;;;;;;13.10;8.05;;;0.30;99.90;;;;;;4769945;30;20062;-79
2020/12/20 04:17:08;;;;;;;12.40;8.35;;;0.30;99.90;;;;;;4755944;30;20047;-80
2020/12/20 04:19:40;;;;;;;11.10;7.65;;;0.30;99.90;;;;;;4769931;30;20047;-80
2020/12/20 04:22:21;;;;;;;13.98;9.02;;;0.30;99.90;;;;;;4759010;30;20051;-79
2020/12/20 04:25:11;;;;;;;14.25;8.15;;;0.30;99.90;;;;;;4769790;30;20047;-80
2020/12/20 04:27:57;;;;;;;12.30;7.80;;;0.30;99.90;;;;;;4772113;30;20056;-80
2020/12/20 04:30:28;;;;;;;13.00;8.15;;;0.30;99.90;;;;;;4755981;30;20043;-79
2020/12/20 04:33:07;;;;;;;13.48;8.40;;;0.30;99.90;;;;;;4769880;30;20419;-80
2020/12/20 04:35:37;;;;;;;12.95;8.52;;;0.20;99.90;;;;;;4755771;30;20275;-80
2020/12/20 04:38:09;;;;;;;13.43;8.65;;;0.20;99.90;;;;;;4755621;30;20047;-81
2020/12/20 04:40:41;;;;;;;12.15;7.95;;;0.20;99.90;;;;;;4769809;30;20113;-79
2020/12/20 04:43:11;;;;;;;14.43;9.25;;;0.20;99.90;;;;;;4755324;30;20508;-80
2020/12/20 04:45:47;;;;;;;12.82;7.97;;;0.20;99.90;;;;;;4769859;30;20059;-79
2020/12/20 04:48:38;;;;;;;12.95;8.55;;;0.20;99.90;;;;;;4769585;30;20058;-79
2020/12/20 04:51:12;;;;;;;12.40;8.98;;;0.20;99.90;;;;;;4756247;30;20043;-80
2020/12/20 04:53:46;;;;;;;12.68;8.82;;;0.20;99.90;;;;;;4756085;30;20093;-79
2020/12/20 04:56:21;;;;;;;14.90;9.05;;;0.20;99.90;;;;;;4756203;30;20079;-79
2020/12/20 04:58:59;;;;;;;13.70;9.10;;;0.20;99.90;;;;;;4769501;30;20047;-79
2020/12/20 05:01:35;;;;;;;13.70;8.73;;;0.20;99.90;;;;;;4769929;30;20049;-79
2020/12/20 05:04:08;;;;;;;13.98;8.82;;;0.20;99.90;;;;;;4755833;30;20052;-80
2020/12/20 05:06:35;;;;;;;13.77;8.35;;;0.10;99.90;;;;;;4773300;30;20068;-79
2020/12/20 05:09:09;;;;;;;16.98;9.68;;;0.20;99.90;;;;;;4759235;30;20044;-79
2020/12/20 05:11:50;;;;;;;12.93;9.10;;;0.20;99.90;;;;;;4773361;30;20585;-79
2020/12/20 05:14:31;;;;;;;14.00;8.60;;;0.20;99.90;;;;;;4759818;30;20142;-80
2020/12/20 05:17:16;;;;;;;13.52;8.50;;;0.20;99.90;;;;;;4772972;30;20386;-80
2020/12/20 05:19:52;;;;;;;17.95;11.65;;;0.20;99.90;;;;;;4772563;30;20062;-79
2020/12/20 05:22:25;;;;;;;18.02;12.13;;;0.20;99.90;;;;;;4758882;30;20131;-79
2020/12/20 05:24:56;;;;;;;15.85;10.10;;;0.20;99.90;;;;;;4772968;30;20055;-80
2020/12/20 05:27:33;;;;;;;14.73;8.90;;;0.20;99.90;;;;;;4759201;30;20074;-79
2020/12/20 05:30:17;;;;;;;14.73;8.85;;;0.20;99.90;;;;;;4773008;30;20110;-79
2020/12/20 05:33:27;;;;;;;17.67;11.57;;;0.20;99.90;;;;;;4739809;30;20049;-80
2020/12/20 05:36:11;;;;;;;16.77;10.98;;;0.20;99.90;;;;;;4760228;30;20105;-79
2020/12/20 05:38:42;;;;;;;14.52;9.60;;;0.30;99.90;;;;;;4757354;30;20150;-80
2020/12/20 05:41:29;;;;;;;12.77;9.00;;;0.30;99.90;;;;;;4758043;30;20079;-80
2020/12/20 05:44:23;;;;;;;13.43;8.65;;;0.20;99.90;;;;;;4772427;30;20059;-80
2020/12/20 05:47:05;;;;;;;11.50;7.97;;;0.20;99.90;;;;;;4759193;30;20049;-79
2020/12/20 05:49:37;;;;;;;12.63;9.15;;;0.20;99.90;;;;;;4757781;30;20053;-78
2020/12/20 05:52:12;;;;;;;14.10;7.95;;;0.20;99.90;;;;;;4772682;30;20051;-79
2020/12/20 05:54:41;;;;;;;12.10;8.20;;;0.20;99.90;;;;;;4761484;30;20063;-79
2020/12/20 05:57:20;;;;;;;14.32;8.48;;;0.20;99.90;;;;;;4739930;30;20184;-79
2020/12/20 05:59:52;;;;;;;13.77;7.90;;;0.10;99.90;;;;;;4737877;30;20450;-79
2020/12/20 06:02:20;;;;;;;12.15;8.30;;;0.10;99.90;;;;;;4737689;30;20523;-79
2020/12/20 06:04:51;;;;;;;11.15;8.02;;;0.10;99.90;;;;;;4723162;30;20049;-79
2020/12/20 06:07:26;;;;;;;13.52;8.35;;;0.20;99.90;;;;;;4737285;30;20440;-79
2020/12/20 06:10:00;;;;;;;12.57;8.77;;;0.20;99.90;;;;;;4737141;30;20122;-79
2020/12/20 06:12:36;;;;;;;12.02;8.77;;;0.20;99.90;;;;;;4737010;30;20056;-79
2020/12/20 06:15:11;;;;;;;13.27;8.95;;;0.20;99.90;;;;;;4738023;30;20056;-80
2020/12/20 06:17:43;;;;;;;14.85;9.23;;;0.20;99.90;;;;;;4736899;30;20052;-80
2020/12/20 06:20:27;;;;;;;15.85;9.50;;;0.10;99.90;;;;;;4739039;30;20052;-79
2020/12/20 06:22:54;;;;;;;11.80;8.38;;;0.10;99.90;;;;;;4754453;30;20478;-79
2020/12/20 06:25:28;;;;;;;12.95;8.13;;;0.10;99.90;;;;;;4754126;30;20052;-79
2020/12/20 06:28:04;;;;;;;11.63;7.28;;;0.00;99.90;;;;;;4753765;30;20598;-79
2020/12/20 06:30:31;;;;;;;12.80;7.30;;;0.10;99.90;;;;;;4739911;30;20067;-79
2020/12/20 06:33:03;;;;;;;10.05;7.05;;;0.10;99.90;;;;;;4739938;30;20048;-79
2020/12/20 06:35:31;;;;;;;13.18;7.90;;;0.10;99.90;;;;;;4739603;30;20150;-79
2020/12/20 06:38:03;;;;;;;10.87;7.43;;;0.10;99.90;;;;;;4754121;30;20386;-79
2020/12/20 06:40:29;;;;;;;9.98;7.10;;;0.10;99.90;;;;;;4754692;30;20086;-80
2020/12/20 06:43:01;;;;;;;11.77;7.50;;;0.10;99.90;;;;;;4740191;30;20061;-79
2020/12/20 06:45:39;;;;;;;10.73;7.35;;;0.10;99.90;;;;;;4753947;30;20425;-80
2020/12/20 06:48:13;;;;;;;11.40;7.55;;;0.10;99.90;;;;;;4754073;30;20135;-79
2020/12/20 06:50:43;;;;;;;14.73;9.15;;;0.10;99.90;;;;;;4739308;30;20146;-79
2020/12/20 06:53:17;;;;;;;14.57;9.18;;;0.10;99.90;;;;;;4754054;30;20040;-80
2020/12/20 06:55:44;;;;;;;11.68;8.30;;;0.10;99.90;;;;;;4754277;30;20605;-79
2020/12/20 06:58:18;;;;;;;12.82;9.20;;;0.10;99.90;;;;;;4755075;30;20075;-78
2020/12/20 07:00:55;;;;;;;16.13;10.43;;;0.10;99.90;;;;;;4738943;30;20059;-79
2020/12/20 07:03:24;;;;;;;22.33;13.60;;;0.20;99.90;;;;;;4753277;30;20106;-79
2020/12/20 07:05:56;;;;;;;17.83;12.57;;;0.20;99.90;;;;;;4739093;30;20416;-79
2020/12/20 07:08:28;;;;;;;13.85;9.70;;;0.20;99.90;;;;;;4752485;30;20052;-79
2020/12/20 07:11:19;;;;;;;12.85;8.48;;;0.20;99.90;;;;;;4738730;30;20559;-79
2020/12/20 07:13:51;;;;;;;9.88;6.78;;;0.20;99.90;;;;;;4739160;30;20134;-79
2020/12/20 07:16:37;;;;;;;9.85;7.20;;;0.10;99.90;;;;;;4739318;30;20154;-79
2020/12/20 07:19:12;;;;;;;11.27;7.43;;;0.10;99.90;;;;;;4751776;30;20063;-79
2020/12/20 07:21:53;;;;;;;17.95;10.68;;;0.10;99.90;;;;;;4738967;30;20047;-80
2020/12/20 07:24:31;;;;;;;10.68;7.75;;;0.10;99.90;;;;;;4738428;30;20479;-79
2020/12/20 07:27:06;;;;;;;9.43;6.97;;;0.10;99.90;;;;;;4752706;30;20048;-79
2020/12/20 07:29:38;;;;;;;10.85;8.20;;;0.20;99.90;;;;;;4753479;30;20043;-79
2020/12/20 07:32:05;;;;;;;11.68;7.85;;;0.20;99.90;;;;;;4738503;30;20083;-79
2020/12/20 07:34:36;;;;;;;15.18;10.07;;;0.20;99.90;;;;;;4753413;30;20516;-79
2020/12/20 07:37:03;;;;;;;12.82;8.68;;;0.20;99.90;;;;;;4738166;30;20083;-79
2020/12/20 07:39:30;;;;;;;10.13;7.72;;;0.20;99.90;;;;;;4737910;30;20143;-78
2020/12/20 07:42:01;;;;;;;17.33;10.45;;;0.20;99.90;;;;;;4739390;30;20521;-79
2020/12/20 07:44:33;;;;;;;13.75;8.77;;;0.30;99.90;;;;;;4739261;30;20547;-79
2020/12/20 07:47:08;;;;;;;10.90;7.57;;;0.30;99.90;;;;;;4753518;30;20420;-79
2020/12/20 07:49:35;;;;;;;15.57;10.13;;;0.40;99.90;;;;;;4739127;30;20048;-79
2020/12/20 07:52:08;;;;;;;18.45;12.70;;;0.40;99.90;;;;;;4752999;30;20047;-79
2020/12/20 07:54:35;;;;;;;21.02;13.93;;;0.40;99.90;;;;;;4753555;30;20056;-79
2020/12/20 07:57:06;;;;;;;17.38;11.50;;;0.50;99.90;;;;;;4753925;30;20419;-79
2020/12/20 07:59:32;;;;;;;10.57;7.13;;;0.50;99.90;;;;;;4737574;30;20052;-79
2020/12/20 08:02:04;;;;;;;10.35;7.25;;;0.40;99.90;;;;;;4739035;30;20051;-79
2020/12/20 08:04:30;;;;;;;9.88;6.28;;;0.30;99.90;;;;;;4752271;30;20509;-79
2020/12/20 08:07:01;;;;;;;10.00;5.75;;;0.40;99.90;;;;;;4752582;30;20043;-79
2020/12/20 08:09:36;;;;;;;9.82;6.80;;;0.40;99.90;;;;;;4738741;30;20147;-78
2020/12/20 08:12:02;;;;;;;11.52;7.22;;;0.40;99.90;;;;;;4738267;30;20119;-80
2020/12/20 08:14:29;;;;;;;10.23;6.72;;;0.50;99.90;;;;;;4752398;30;20608;-79
2020/12/20 08:17:00;;;;;;;11.57;6.47;;;0.50;99.90;;;;;;4738643;30;20047;-79
2020/12/20 08:19:28;;;;;;;10.52;7.20;;;0.50;99.90;;;;;;4737980;30;20151;-79
2020/12/20 08:22:03;;;;;;;;;;;0.50;99.90;;;;;;4768099;30;20043;-79
2020/12/20 08:24:37;;;;;;;14.45;8.65;;;0.60;99.90;;;;;;4770142;30;19932;-79
2020/12/20 08:27:23;;;;;;;13.10;9.35;;;0.60;99.90;;;;;;4755517;30;20150;-79
2020/12/20 08:29:59;;;;;;;13.00;9.32;;;0.60;99.90;;;;;;4770257;30;20058;-80
2020/12/20 08:32:36;;;;;;;11.55;9.35;;;0.70;99.90;;;;;;4755705;30;20138;-79
2020/12/20 08:35:09;;;;;;;13.15;8.48;;;0.70;99.90;;;;;;4755544;30;20423;-79
2020/12/20 08:37:42;;;;;;;11.95;7.50;;;0.70;99.90;;;;;;4755714;30;20062;-81
2020/12/20 08:40:15;;;;;;;11.93;8.02;;;0.70;99.90;;;;;;4765892;30;20529;-79
2020/12/20 08:42:47;;;;;;;11.93;7.50;;;0.70;99.90;;;;;;4738142;30;20062;-79
2020/12/20 08:45:22;;;;;;;12.10;8.43;;;0.60;99.90;;;;;;4753675;30;20529;-80
2020/12/20 08:47:50;;;;;;;12.20;8.70;;;0.60;99.90;;;;;;4739135;30;20460;-80
2020/12/20 08:50:25;;;;;;;10.50;7.72;;;0.60;99.90;;;;;;4738664;30;20121;-81
2020/12/20 08:53:03;;;;;;;10.38;7.88;;;0.60;99.90;;;;;;4738485;30;20055;-81
2020/12/20 08:55:35;;;;;;;14.25;7.95;;;0.70;99.90;;;;;;4755068;30;20136;-81
2020/12/20 08:58:09;;;;;;;14.73;7.63;;;0.70;99.90;;;;;;4757170;30;20064;-80
2020/12/20 09:00:37;;;;;;;11.80;7.55;;;0.80;99.90;;;;;;4754040;30;20056;-81
2020/12/20 09:03:06;;;;;;;12.77;9.30;;;0.80;99.90;;;;;;4754157;30;20295;-80
2020/12/20 09:05:38;;;;;;;;;;;0.80;99.90;;;;;;4740278;30;20047;-81
2020/12/20 09:08:05;;;;;;;18.83;12.00;;;0.80;99.90;;;;;;4753877;30;20181;-80
2020/12/20 09:10:34;;;;;;;19.13;13.70;;;0.90;99.90;;;;;;4739323;30;20142;-80
2020/12/20 09:13:07;;;;;;;14.73;10.43;;;0.90;99.90;;;;;;4754074;30;20075;-80
2020/12/20 09:15:36;;;;;;;14.02;8.90;;;0.90;99.90;;;;;;4738914;30;20431;-81
2020/12/20 09:18:25;;;;;;;19.52;12.80;;;0.90;99.90;;;;;;4739921;30;20056;-81
2020/12/20 09:20:52;;;;;;;33.60;16.73;;;0.90;99.90;;;;;;4753144;30;20058;-81
2020/12/20 09:23:24;;;;;;;21.23;12.50;;;0.90;99.90;;;;;;4738984;30;20124;-81
2020/12/20 09:25:59;;;;;;;14.65;9.52;;;0.90;99.90;;;;;;4753196;30;20048;-80
2020/12/20 09:28:32;;;;;;;14.40;9.23;;;0.90;99.90;;;;;;4752990;30;20479;-80
2020/12/20 09:31:16;;;;;;;18.05;11.57;;;0.90;99.90;;;;;;4756560;30;20102;-80
2020/12/20 09:33:48;;;;;;;16.00;10.13;;;1.00;99.90;;;;;;4738264;30;20139;-80
2020/12/20 09:36:24;;;;;;;12.70;8.93;;;1.00;99.90;;;;;;4738555;30;20177;-80
2020/12/20 09:38:57;;;;;;;13.07;9.27;;;1.00;99.90;;;;;;4754131;30;20129;-80
2020/12/20 09:41:26;;;;;;;12.43;8.05;;;1.10;99.90;;;;;;4738252;30;20073;-80
2020/12/20 09:44:02;;;;;;;13.40;9.50;;;1.10;99.90;;;;;;4752980;30;20064;-80
2020/12/20 09:46:35;;;;;;;11.30;7.57;;;1.10;99.90;;;;;;4752698;30;20052;-81
2020/12/20 09:49:04;;;;;;;11.90;7.88;;;1.00;99.90;;;;;;4752767;30;20066;-80
2020/12/20 09:51:35;;;;;;;15.13;10.05;;;1.10;99.90;;;;;;4736179;30;20047;-80
2020/12/20 09:54:02;;;;;;;18.92;11.75;;;1.00;99.90;;;;;;4740898;30;20056;-80
2020/12/20 09:56:30;;;;;;;11.00;7.97;;;1.00;99.90;;;;;;4741311;30;20098;-80
2020/12/20 09:58:57;;;;;;;10.98;8.02;;;1.00;99.90;;;;;;4741188;30;20059;-80
2020/12/20 10:54:11;;;;;;;14.43;9.43;;;1.10;99.90;;;;;;4765016;24;20048;-80
2020/12/20 10:56:39;;;;;;;13.52;9.43;;;1.10;99.90;;;;;;4730088;30;20052;-79
2020/12/20 10:59:12;;;;;;;13.82;8.63;;;1.20;99.90;;;;;;4739509;30;20059;-79
2020/12/20 11:01:40;;;;;;;12.82;9.02;;;1.30;99.90;;;;;;4726515;30;20094;-80
2020/12/20 11:04:15;;;;;;;12.95;8.80;;;1.40;99.90;;;;;;4740983;30;20151;-79
2020/12/20 11:06:56;;;;;;;12.35;8.10;;;1.50;99.90;;;;;;4741589;30;20059;-79
2020/12/20 11:10:01;;;;;;;14.00;9.15;;;1.50;99.90;;;;;;4745218;30;20058;-80
2020/12/20 11:13:27;;;;;;;13.48;8.45;;;1.60;99.90;;;;;;4748562;30;20064;-81
2020/12/20 11:16:22;;;;;;;12.52;9.35;;;1.60;99.90;;;;;;4747861;30;20059;-81
2020/12/20 11:42:31;;;;;;;14.60;10.10;;;1.80;99.90;;;;;;4705390;30;20029;-81
2020/12/20 11:50:35;;;;;;;20.13;15.65;;;1.80;99.90;;;;;;4704480;30;20048;-80
2020/12/20 12:00:18;;;;;;;12.80;8.88;;;1.90;99.90;;;;;;5103392;24;20121;-76
2020/12/20 12:08:30;;;;;;;14.80;9.35;;;2.00;99.90;;;;;;4857233;24;20060;-77
2020/12/20 12:10:58;;;;;;;12.68;8.90;;;2.00;99.90;;;;;;4739745;30;20524;-78
2020/12/20 12:13:31;;;;;;;18.40;11.38;;;2.00;99.90;;;;;;4738460;30;20532;-77
2020/12/20 12:15:58;;;;;;;15.88;10.52;;;2.00;99.90;;;;;;4722099;30;20556;-77
2020/12/20 12:18:29;;;;;;;57.15;33.30;;;2.00;99.90;;;;;;4721886;30;20052;-78
2020/12/20 12:20:56;;;;;;;29.88;19.15;;;1.90;99.90;;;;;;4721738;30;20079;-78
2020/12/20 12:23:23;;;;;;;35.05;23.48;;;1.70;99.90;;;;;;4721253;30;20052;-78
2020/12/20 12:25:50;;;;;;;25.23;18.67;;;1.70;99.90;;;;;;4721133;30;20055;-79
2020/12/20 12:28:21;;;;;;;13.00;9.23;;;1.70;99.90;;;;;;4721108;30;20048;-77
2020/12/20 12:30:48;;;;;;;12.55;8.90;;;1.70;99.90;;;;;;4735158;30;20136;-77
2020/12/20 12:33:20;;;;;;;12.13;7.78;;;1.60;99.90;;;;;;4720075;30;20151;-78
2020/12/20 12:35:51;;;;;;;13.00;9.15;;;1.60;99.90;;;;;;4736142;30;20079;-77
2020/12/20 12:38:18;;;;;;;14.70;9.43;;;1.60;99.90;;;;;;4719975;30;20444;-78
2020/12/20 12:40:45;;;;;;;14.65;9.80;;;1.70;99.90;;;;;;4720869;30;20060;-77
2020/12/20 12:43:12;;;;;;;13.32;9.45;;;1.80;99.90;;;;;;4721009;30;20090;-78
2020/12/20 12:45:44;;;;;;;13.98;9.38;;;1.90;99.90;;;;;;4735581;30;20222;-77
2020/12/20 12:48:16;;;;;;;14.13;9.57;;;2.00;99.90;;;;;;4721496;30;20072;-77
2020/12/20 12:50:42;;;;;;;13.07;8.68;;;2.10;99.90;;;;;;4735288;30;20501;-77
2020/12/20 12:53:09;;;;;;;13.75;9.45;;;2.10;99.90;;;;;;4721164;30;20517;-77
2020/12/20 12:55:36;;;;;;;13.48;8.38;;;2.10;99.90;;;;;;4720759;30;20052;-77
2020/12/20 12:58:02;;;;;;;14.90;9.55;;;2.10;99.90;;;;;;4734714;30;20429;-79
2020/12/20 13:00:34;;;;;;;15.73;12.50;;;2.10;99.90;;;;;;4735409;30;20732;-77
2020/12/20 13:03:06;;;;;;;13.70;9.40;;;2.00;99.90;;;;;;4721706;30;20047;-77
2020/12/20 13:05:33;;;;;;;14.85;10.43;;;2.00;99.90;;;;;;4735303;30;20045;-77
2020/12/20 13:08:01;;;;;;;16.10;10.80;;;2.00;99.90;;;;;;4720004;30;20048;-77
2020/12/20 13:10:32;;;;;;;13.97;9.67;;;1.90;99.90;;;;;;4721413;30;20048;-77
2020/12/20 13:13:04;;;;;;;13.25;9.65;;;1.90;99.90;;;;;;4721107;30;20803;-77
2020/12/20 13:15:31;;;;;;;16.70;10.57;;;2.00;99.90;;;;;;4720431;30;20052;-80
2020/12/20 13:17:58;;;;;;;22.85;13.38;;;2.00;99.90;;;;;;4734691;30;20191;-77
2020/12/20 13:20:29;;;;;;;23.73;13.20;;;1.90;99.90;;;;;;4721191;30;20064;-79
2020/12/20 13:22:56;;;;;;;20.58;12.57;;;1.90;99.90;;;;;;4720575;30;20059;-77
2020/12/20 13:25:23;;;;;;;14.18;9.73;;;1.90;99.90;;;;;;4734874;30;20109;-77
2020/12/20 13:27:50;;;;;;;16.42;10.70;;;1.90;99.90;;;;;;4737839;30;20048;-77
2020/12/20 13:30:17;;;;;;;15.25;10.15;;;1.90;99.90;;;;;;4723328;30;20160;-78
2020/12/20 13:32:43;;;;;;;19.85;13.88;;;1.90;99.90;;;;;;4736994;30;20793;-77
2020/12/20 13:35:10;;;;;;;17.85;13.00;;;2.00;99.90;;;;;;4723739;30;20146;-76
2020/12/20 13:37:42;;;;;;;15.38;10.85;;;1.90;99.90;;;;;;4738254;30;20505;-77
2020/12/20 13:40:13;;;;;;;15.27;10.25;;;2.00;99.90;;;;;;4738311;30;20528;-77
2020/12/20 13:42:45;;;;;;;16.58;10.77;;;2.00;99.90;;;;;;4724740;30;20075;-77
2020/12/20 13:45:16;;;;;;;14.85;9.57;;;2.00;99.90;;;;;;4724095;30;20056;-77
2020/12/20 13:47:43;;;;;;;14.70;10.30;;;2.00;99.90;;;;;;4737513;30;20052;-80
2020/12/20 13:50:10;;;;;;;16.38;10.07;;;1.90;99.90;;;;;;4723478;30;20044;-78
2020/12/20 13:52:37;;;;;;;15.45;10.27;;;1.90;99.90;;;;;;4723186;30;20086;-77
2020/12/20 13:55:04;;;;;;;19.08;12.88;;;2.00;99.90;;;;;;4723470;30;20056;-77
2020/12/20 13:57:31;;;;;;;14.75;10.90;;;2.00;99.90;;;;;;4722157;30;20060;-77
2020/12/20 13:59:58;;;;;;;15.80;10.02;;;2.10;99.90;;;;;;4723014;30;20056;-80
2020/12/20 14:02:37;;;;;;;16.50;11.50;;;2.10;99.90;;;;;;4739492;30;20059;-77
2020/12/20 14:05:09;;;;;;;19.35;11.57;;;2.10;99.90;;;;;;4738921;30;20076;-77
2020/12/20 14:07:36;;;;;;;15.18;11.00;;;2.10;99.90;;;;;;4735347;30;20115;-77
2020/12/20 14:10:03;;;;;;;15.32;9.98;;;2.10;99.90;;;;;;4723936;30;20056;-77
2020/12/20 14:12:29;;;;;;;19.80;11.95;;;2.10;99.90;;;;;;4736607;30;20471;-77
2020/12/20 14:14:56;;;;;;;17.63;11.50;;;2.10;99.90;;;;;;4723162;30;20499;-80
2020/12/20 14:17:27;;;;;;;19.73;11.95;;;2.10;99.90;;;;;;4736056;30;20048;-80
2020/12/20 14:19:58;;;;;;;15.80;10.65;;;2.40;99.90;;;;;;4723069;30;20056;-79
2020/12/20 14:22:30;;;;;;;16.48;12.25;;;2.50;99.90;;;;;;4727957;30;20450;-77
2020/12/20 14:24:56;;;;;;;20.45;12.45;;;2.50;99.90;;;;;;4738416;30;20071;-77
2020/12/20 14:27:23;;;;;;;16.42;11.20;;;2.50;99.90;;;;;;4751111;30;20052;-79
2020/12/20 14:29:50;;;;;;;27.48;18.55;;;2.50;99.90;;;;;;4734273;30;20683;-77
2020/12/20 14:32:21;;;;;;;22.10;14.93;;;2.50;99.90;;;;;;4735295;30;20465;-77
2020/12/20 14:34:47;;;;;;;18.45;12.10;;;2.40;99.90;;;;;;4752409;30;20090;-77
2020/12/20 14:37:14;;;;;;;17.08;11.65;;;2.40;99.90;;;;;;4751992;30;20151;-76
2020/12/20 14:39:49;;;;;;;17.33;10.73;;;2.40;99.90;;;;;;4738009;30;20728;-77
2020/12/20 14:42:24;;;;;;;15.93;10.35;;;2.30;99.90;;;;;;4738557;30;20504;-77
2020/12/20 14:44:55;;;;;;;15.15;9.90;;;2.30;99.90;;;;;;4738275;30;20138;-78
2020/12/20 14:47:22;;;;;;;20.15;11.80;;;2.30;99.90;;;;;;4737985;30;20079;-77
2020/12/20 14:49:54;;;;;;;16.77;10.18;;;2.20;99.90;;;;;;4737970;30;20055;-77